createdAt,value
2023-03-12T00:01:54.674Z,65.72
2023-03-12T00:04:00.119Z,65.60
2023-03-12T00:06:11.007Z,65.22
2023-03-12T00:08:16.605Z,65.86
2023-03-12T00:10:21.534Z,65.78
2023-03-12T00:12:26.260Z,65.68
2023-03-12T00:14:31.256Z,66.12
2023-03-12T00:16:35.982Z,65.89
2023-03-12T00:18:41.066Z,65.92
2023-03-12T00:20:45.898Z,66.01
2023-03-12T00:22:53.504Z,65.56
2023-03-12T00:24:59.522Z,65.77
2023-03-12T00:27:04.247Z,65.73
2023-03-12T00:29:09.176Z,65.67
2023-03-12T00:31:18.894Z,66.05
2023-03-12T00:33:23.590Z,66.46
2023-03-12T00:35:28.555Z,66.23
2023-03-12T00:37:33.590Z,66.46
2023-03-12T00:39:42.060Z,65.87
2023-03-12T00:41:47.468Z,65.98
2023-03-12T00:43:53.330Z,65.59
2023-03-12T00:45:58.043Z,65.48
2023-03-12T00:48:02.881Z,65.34
2023-03-12T00:50:08.421Z,65.19
2023-03-12T00:52:13.250Z,64.65
2023-03-12T00:54:17.998Z,64.70
2023-03-12T00:56:25.520Z,64.24
2023-03-12T00:58:30.279Z,63.63
2023-03-12T01:00:35.045Z,63.81
2023-03-12T01:02:40.392Z,63.57
2023-03-12T01:04:45.034Z,63.59
2023-03-12T01:06:50.026Z,63.62
2023-03-12T01:08:55.554Z,62.94
2023-03-12T01:11:00.608Z,63.43
2023-03-12T01:13:07.890Z,63.85
2023-03-12T01:15:16.318Z,63.53
2023-03-12T01:17:21.434Z,63.98
2023-03-12T01:19:26.135Z,64.35
2023-03-12T01:21:31.999Z,64.21
2023-03-12T01:23:37.052Z,64.17
2023-03-12T01:25:41.742Z,64.35
2023-03-12T01:27:46.670Z,63.99
2023-03-12T01:29:53.988Z,64.39
2023-03-12T01:31:58.786Z,64.47
2023-03-12T01:34:03.525Z,64.65
2023-03-12T01:36:20.821Z,64.73
2023-03-12T01:38:25.710Z,64.61
2023-03-12T01:40:30.538Z,64.26
2023-03-12T01:42:35.427Z,63.50
2023-03-12T01:44:59.920Z,63.88
2023-03-12T01:47:04.578Z,63.91
2023-03-12T01:49:13.736Z,63.79
2023-03-12T01:51:20.330Z,64.19
2023-03-12T01:53:25.874Z,64.27
2023-03-12T01:55:30.614Z,64.70
2023-03-12T01:57:39.928Z,64.06
2023-03-12T01:59:49.856Z,64.04
2023-03-12T02:01:57.615Z,63.73
2023-03-12T02:04:03.461Z,63.87
2023-03-12T02:06:12.921Z,64.02
2023-03-12T02:08:19.947Z,63.62
2023-03-12T02:10:25.731Z,63.43
2023-03-12T02:12:30.493Z,63.73
2023-03-12T02:14:35.644Z,63.58
2023-03-12T02:16:40.464Z,63.57
2023-03-12T02:18:49.962Z,63.83
2023-03-12T02:21:02.966Z,64.03
2023-03-12T02:23:15.868Z,63.63
2023-03-12T02:25:33.375Z,64.67
2023-03-12T02:27:40.892Z,65.04
2023-03-12T02:29:47.579Z,65.28
2023-03-12T02:31:56.907Z,65.90
2023-03-12T02:34:01.793Z,66.14
2023-03-12T02:36:07.149Z,67.08
2023-03-12T02:38:34.616Z,67.48
2023-03-12T02:40:46.917Z,68.46
2023-03-12T02:42:51.933Z,68.13
2023-03-12T02:44:57.134Z,68.19
2023-03-12T02:47:04.042Z,68.34
2023-03-12T02:49:09.076Z,68.99
2023-03-12T02:51:14.432Z,69.54
2023-03-12T02:53:19.298Z,70.25
2023-03-12T02:55:23.968Z,70.92
2023-03-12T02:57:31.864Z,70.66
2023-03-12T02:59:36.697Z,70.34
2023-03-12T03:01:41.775Z,70.61
2023-03-12T03:03:47.222Z,70.50
2023-03-12T03:05:52.324Z,70.32
2023-03-12T03:07:57.666Z,70.93
2023-03-12T03:10:04.427Z,69.95
2023-03-12T03:12:10.032Z,70.87
2023-03-12T03:14:17.446Z,70.71
2023-03-12T03:16:22.216Z,71.09
2023-03-12T03:18:26.893Z,71.92
2023-03-12T03:20:31.574Z,71.96
2023-03-12T03:22:36.933Z,72.99
2023-03-12T03:24:41.625Z,72.97
2023-03-12T03:26:47.082Z,73.58
2023-03-12T03:28:52.306Z,73.71
2023-03-12T03:31:02.309Z,74.29
2023-03-12T03:33:07.404Z,74.55
2023-03-12T03:35:12.929Z,75.01
2023-03-12T03:37:17.630Z,75.32
2023-03-12T03:39:22.458Z,75.33
2023-03-12T03:41:27.301Z,75.66
2023-03-12T03:43:34.828Z,75.48
2023-03-12T03:45:39.819Z,75.40
2023-03-12T03:47:47.273Z,75.89
2023-03-12T03:49:52.487Z,75.60
2023-03-12T03:51:57.572Z,75.85
2023-03-12T03:54:02.797Z,75.76
2023-03-12T03:56:11.813Z,75.48
2023-03-12T03:58:16.752Z,75.71
2023-03-12T04:00:22.484Z,74.64
2023-03-12T04:02:27.643Z,74.13
2023-03-12T04:04:35.210Z,74.12
2023-03-12T04:06:40.986Z,74.19
2023-03-12T04:08:45.910Z,74.24
2023-03-12T04:10:50.816Z,74.92
2023-03-12T04:12:55.686Z,75.13
2023-03-12T04:15:03.188Z,76.10
2023-03-12T04:17:07.863Z,77.81
2023-03-12T04:19:12.626Z,79.20
2023-03-12T04:21:20.015Z,81.32
2023-03-12T04:23:24.960Z,82.78
2023-03-12T04:25:29.680Z,83.84
2023-03-12T04:27:34.432Z,84.58
2023-03-12T04:29:40.905Z,84.96
2023-03-12T04:31:47.500Z,85.82
2023-03-12T04:33:52.449Z,86.08
2023-03-12T04:35:57.994Z,86.71
2023-03-12T04:38:06.726Z,87.17
2023-03-12T04:40:16.509Z,87.74
2023-03-12T04:42:21.427Z,87.36
2023-03-12T04:44:26.412Z,88.09
2023-03-12T04:46:31.706Z,88.11
2023-03-12T04:48:36.744Z,88.70
2023-03-12T04:50:42.704Z,88.58
2023-03-12T04:52:47.463Z,89.10
2023-03-12T04:54:55.379Z,89.55
2023-03-12T04:57:00.516Z,89.54
2023-03-12T04:59:05.796Z,89.72
2023-03-12T05:01:11.704Z,89.86
2023-03-12T05:03:17.099Z,90.21
2023-03-12T05:05:22.356Z,90.02
2023-03-12T05:07:27.190Z,89.84
2023-03-12T05:09:32.180Z,90.49
2023-03-12T05:11:40.991Z,90.08
2023-03-12T05:13:46.552Z,90.22
2023-03-12T05:15:52.448Z,90.64
2023-03-12T05:17:59.644Z,90.42
2023-03-12T05:20:04.455Z,90.47
2023-03-12T05:22:11.592Z,90.65
2023-03-12T05:24:16.456Z,90.64
2023-03-12T05:26:23.241Z,90.46
2023-03-12T05:28:31.321Z,90.60
2023-03-12T05:30:38.934Z,90.96
2023-03-12T05:32:46.834Z,90.69
2023-03-12T05:34:51.928Z,91.13
2023-03-12T05:36:56.611Z,90.71
2023-03-12T05:39:01.666Z,91.74
2023-03-12T05:41:07.198Z,91.94
2023-03-12T05:43:11.981Z,92.34
2023-03-12T05:45:19.755Z,92.67
2023-03-12T05:47:26.739Z,92.65
2023-03-12T05:49:31.669Z,92.89
2023-03-12T05:51:36.726Z,93.04
2023-03-12T05:53:41.506Z,93.35
2023-03-12T05:55:46.653Z,94.00
2023-03-12T05:57:54.138Z,94.08
2023-03-12T05:59:58.754Z,93.99
2023-03-12T06:02:07.636Z,94.09
2023-03-12T06:04:12.337Z,94.58
2023-03-12T06:06:19.844Z,94.63
2023-03-12T06:08:24.509Z,94.41
2023-03-12T06:10:29.583Z,94.90
2023-03-12T06:12:34.263Z,94.61
2023-03-12T06:14:38.871Z,94.43
2023-03-12T06:16:44.140Z,94.38
2023-03-12T06:18:52.576Z,94.31
2023-03-12T06:20:58.496Z,94.72
2023-03-12T06:23:03.297Z,94.97
2023-03-12T06:25:11.425Z,94.71
2023-03-12T06:27:18.027Z,95.02
2023-03-12T06:29:22.863Z,95.03
2023-03-12T06:31:29.895Z,94.98
2023-03-12T06:33:35.413Z,95.23
2023-03-12T06:35:43.157Z,95.44
2023-03-12T06:37:47.853Z,95.43
2023-03-12T06:39:52.745Z,95.48
2023-03-12T06:41:58.706Z,95.32
2023-03-12T06:44:06.195Z,95.65
2023-03-12T06:46:15.191Z,95.32
2023-03-12T06:48:19.970Z,95.49
2023-03-12T06:50:26.511Z,95.42
2023-03-12T06:52:33.808Z,95.24
2023-03-12T06:54:38.609Z,95.42
2023-03-12T06:56:43.879Z,95.17
2023-03-12T06:58:51.853Z,95.27
2023-03-12T07:00:57.975Z,95.22
2023-03-12T07:03:02.943Z,95.33
2023-03-12T07:05:08.582Z,95.42
2023-03-12T07:07:14.557Z,95.46
2023-03-12T07:09:24.309Z,95.46
2023-03-12T07:11:29.112Z,95.42
2023-03-12T07:13:33.853Z,95.51
2023-03-12T07:15:38.809Z,95.59
2023-03-12T07:17:44.346Z,95.57
2023-03-12T07:19:49.922Z,96.01
2023-03-12T07:21:55.419Z,96.00
2023-03-12T07:24:01.126Z,95.96
2023-03-12T07:26:09.712Z,95.77
2023-03-12T07:28:17.714Z,96.16
2023-03-12T07:30:22.423Z,95.96
2023-03-12T07:32:29.095Z,96.51
2023-03-12T07:34:33.970Z,96.58
2023-03-12T07:36:39.836Z,96.87
2023-03-12T07:38:44.933Z,96.52
2023-03-12T07:40:53.616Z,96.68
2023-03-12T07:43:01.254Z,96.87
2023-03-12T07:45:08.116Z,97.25
2023-03-12T07:47:23.703Z,97.16
2023-03-12T07:49:32.900Z,96.90
2023-03-12T07:51:37.888Z,97.04
2023-03-12T07:53:42.738Z,97.21
2023-03-12T07:55:48.886Z,97.38
2023-03-12T07:57:58.585Z,97.46
2023-03-12T08:00:11.182Z,97.30
2023-03-12T08:02:16.308Z,97.47
2023-03-12T08:04:21.376Z,97.63
2023-03-12T08:06:26.475Z,97.55
2023-03-12T08:08:32.883Z,97.61
2023-03-12T08:10:43.171Z,97.70
2023-03-12T08:12:48.136Z,97.67
2023-03-12T08:14:53.236Z,97.91
2023-03-12T08:17:01.947Z,98.32
2023-03-12T08:19:06.662Z,98.36
2023-03-12T08:21:16.537Z,98.39
2023-03-12T08:23:22.517Z,98.28
2023-03-12T08:25:27.402Z,98.26
2023-03-12T08:27:32.652Z,98.45
2023-03-12T08:29:39.859Z,98.58
2023-03-12T08:32:01.510Z,98.74
2023-03-12T08:34:11.196Z,98.55
2023-03-12T08:36:16.334Z,98.21
2023-03-12T08:38:21.360Z,98.48
2023-03-12T08:40:31.273Z,98.44
2023-03-12T08:42:35.914Z,98.56
2023-03-12T08:44:40.909Z,98.36
2023-03-12T08:46:47.882Z,98.65
2023-03-12T08:48:56.987Z,98.70
2023-03-12T08:51:07.729Z,98.64
2023-03-12T08:53:14.014Z,98.48
2023-03-12T08:55:19.974Z,98.63
2023-03-12T08:57:25.586Z,98.43
2023-03-12T08:59:32.838Z,98.76
2023-03-12T09:01:43.058Z,98.23
2023-03-12T09:03:51.082Z,98.63
2023-03-12T09:06:13.432Z,98.45
2023-03-12T09:08:19.325Z,98.58
2023-03-12T09:10:24.005Z,98.45
2023-03-12T09:12:29.285Z,98.41
2023-03-12T09:15:02.149Z,98.15
2023-03-12T09:16:59.075Z,98.27
2023-03-12T09:19:04.263Z,98.48
2023-03-12T09:21:11.806Z,98.44
2023-03-12T09:23:19.289Z,98.17
2023-03-12T09:25:24.192Z,98.06
2023-03-12T09:27:29.151Z,97.98
2023-03-12T09:29:41.392Z,97.72
2023-03-12T09:31:51.235Z,97.43
2023-03-12T09:34:04.548Z,97.29
2023-03-12T09:36:13.310Z,97.03
2023-03-12T09:38:24.108Z,96.79
2023-03-12T09:40:33.157Z,96.42
2023-03-12T09:42:45.495Z,96.40
2023-03-12T09:44:53.790Z,95.92
2023-03-12T09:47:02.115Z,95.94
2023-03-12T09:49:19.155Z,95.96
2023-03-12T09:51:29.865Z,95.28
2023-03-12T09:53:38.724Z,95.12
2023-03-12T09:55:48.214Z,94.78
2023-03-12T09:57:55.614Z,94.46
2023-03-12T10:00:00.765Z,93.68
2023-03-12T10:02:18.965Z,93.92
2023-03-12T10:04:58.885Z,93.27
2023-03-12T10:07:12.647Z,93.08
2023-03-12T10:09:32.143Z,93.36
2023-03-12T10:11:47.070Z,92.80
2023-03-12T10:14:05.762Z,92.75
2023-03-12T10:16:21.058Z,92.50
2023-03-12T10:18:44.759Z,92.03
2023-03-12T10:21:02.849Z,92.14
2023-03-12T10:23:16.041Z,91.97
2023-03-12T10:25:25.321Z,91.72
2023-03-12T10:27:34.277Z,92.02
2023-03-12T10:29:44.984Z,92.14
2023-03-12T10:32:00.451Z,91.37
2023-03-12T10:34:21.241Z,91.36
2023-03-12T10:36:31.236Z,91.22
2023-03-12T10:38:41.601Z,91.80
2023-03-12T10:40:48.032Z,91.40
2023-03-12T10:42:54.433Z,91.27
2023-03-12T10:45:04.620Z,91.35
2023-03-12T10:47:29.799Z,91.07
2023-03-12T10:49:38.279Z,91.20
2023-03-12T10:51:58.067Z,90.25
2023-03-12T10:54:24.918Z,89.91
2023-03-12T10:56:32.640Z,90.58
2023-03-12T10:58:41.349Z,90.61
2023-03-12T11:01:00.113Z,90.62
2023-03-12T11:03:11.652Z,90.81
2023-03-12T11:05:27.270Z,91.08
2023-03-12T11:07:33.335Z,90.59
2023-03-12T11:09:42.574Z,90.20
2023-03-12T11:11:50.220Z,89.74
2023-03-12T11:14:10.860Z,89.70
2023-03-12T11:16:31.905Z,89.06
2023-03-12T11:18:41.337Z,88.87
2023-03-12T11:20:46.612Z,88.71
2023-03-12T11:22:59.301Z,87.90
2023-03-12T11:25:09.076Z,86.99
2023-03-12T11:27:32.921Z,87.50
2023-03-12T11:29:41.811Z,87.20
2023-03-12T11:32:03.653Z,86.97
2023-03-12T11:34:11.064Z,86.45
2023-03-12T11:36:41.800Z,86.14
2023-03-12T11:38:54.010Z,85.93
2023-03-12T11:41:13.698Z,85.58
2023-03-12T11:43:43.761Z,85.47
2023-03-12T11:46:13.664Z,85.34
2023-03-12T11:48:27.911Z,84.87
2023-03-12T11:50:47.568Z,84.59
2023-03-12T11:53:08.503Z,83.73
2023-03-12T11:55:22.510Z,83.57
2023-03-12T11:57:38.772Z,83.38
2023-03-12T12:00:01.621Z,83.74
2023-03-12T12:02:23.327Z,82.83
2023-03-12T12:04:57.496Z,82.59
2023-03-12T12:07:11.623Z,81.13
2023-03-12T12:09:26.542Z,81.60
2023-03-12T12:11:41.163Z,81.73
2023-03-12T12:13:58.503Z,80.34
2023-03-12T12:16:19.386Z,80.34
2023-03-12T12:18:45.121Z,80.24
2023-03-12T12:20:58.546Z,80.25
2023-03-12T12:23:17.882Z,80.81
2023-03-12T12:25:52.647Z,80.24
2023-03-12T12:28:14.397Z,79.06
2023-03-12T12:30:28.839Z,79.27
2023-03-12T12:32:45.643Z,78.58
2023-03-12T12:35:04.889Z,77.61
2023-03-12T12:37:40.039Z,78.65
2023-03-12T12:39:50.069Z,77.78
2023-03-12T12:41:58.667Z,78.03
2023-03-12T12:44:08.218Z,77.66
2023-03-12T12:46:19.755Z,76.50
2023-03-12T12:48:28.426Z,76.54
2023-03-12T12:50:36.740Z,76.67
2023-03-12T12:52:41.872Z,76.43
2023-03-12T12:54:58.541Z,75.78
2023-03-12T12:57:09.401Z,76.29
2023-03-12T12:59:36.746Z,75.31
2023-03-12T13:01:45.458Z,74.26
2023-03-12T13:03:52.236Z,75.02
2023-03-12T13:05:59.850Z,75.11
2023-03-12T13:08:06.456Z,74.08
2023-03-12T13:10:52.927Z,74.20
2023-03-12T13:13:07.614Z,74.34
2023-03-12T13:15:40.252Z,73.80
2023-03-12T13:18:11.825Z,73.42
2023-03-12T13:20:21.016Z,72.68
2023-03-12T13:22:34.030Z,73.03
2023-03-12T13:24:45.475Z,73.18
2023-03-12T13:26:56.840Z,72.59
2023-03-12T13:29:16.820Z,72.62
2023-03-12T13:31:54.424Z,72.12
2023-03-12T13:34:11.239Z,72.45
2023-03-12T13:36:28.368Z,71.94
2023-03-12T13:38:43.492Z,71.99
2023-03-12T13:41:07.963Z,72.16
2023-03-12T13:43:16.571Z,71.22
2023-03-12T13:45:32.032Z,71.16
2023-03-12T13:47:45.329Z,70.55
2023-03-12T13:49:58.084Z,70.45
2023-03-12T13:52:24.564Z,70.46
2023-03-12T13:54:34.664Z,69.59
2023-03-12T13:56:40.160Z,69.05
2023-03-12T13:58:51.651Z,68.78
2023-03-12T14:00:59.700Z,70.06
2023-03-12T14:03:09.117Z,69.94
2023-03-12T14:05:19.048Z,69.92
2023-03-12T14:07:45.363Z,69.77
2023-03-12T14:10:07.528Z,70.51
2023-03-12T14:12:17.595Z,70.25
2023-03-12T14:14:42.412Z,71.04
2023-03-12T14:16:49.522Z,71.73
2023-03-12T14:18:55.445Z,71.81
2023-03-12T14:21:05.450Z,72.18
2023-03-12T14:23:16.301Z,71.72
2023-03-12T14:25:31.894Z,70.74
2023-03-12T14:27:37.139Z,70.85
2023-03-12T14:29:47.940Z,70.95
2023-03-12T14:31:54.984Z,72.18
2023-03-12T14:34:03.381Z,72.20
2023-03-12T14:36:17.538Z,71.92
2023-03-12T14:38:28.213Z,71.74
2023-03-12T14:40:42.555Z,71.99
2023-03-12T14:42:47.580Z,72.05
2023-03-12T14:45:00.421Z,71.69
2023-03-12T14:47:10.127Z,71.24
2023-03-12T14:49:23.380Z,71.23
2023-03-12T14:51:32.661Z,72.08
2023-03-12T14:53:39.739Z,71.88
2023-03-12T14:55:44.920Z,72.49
2023-03-12T14:57:49.684Z,72.34
2023-03-12T14:59:59.271Z,72.08
2023-03-12T15:02:08.048Z,72.69
2023-03-12T15:04:19.651Z,72.65
2023-03-12T15:06:31.939Z,72.67
2023-03-12T15:08:42.535Z,72.91
2023-03-12T15:10:51.866Z,73.54
2023-03-12T15:12:59.519Z,73.29
2023-03-12T15:15:07.854Z,73.74
2023-03-12T15:17:19.855Z,73.60
2023-03-12T15:19:29.143Z,74.07
2023-03-12T15:21:38.576Z,73.65
2023-03-12T15:23:48.284Z,74.05
2023-03-12T15:26:15.164Z,73.65
2023-03-12T15:28:30.969Z,73.52
2023-03-12T15:30:38.791Z,74.38
2023-03-12T15:32:47.063Z,73.54
2023-03-12T15:34:51.875Z,74.22
2023-03-12T15:36:59.297Z,73.75
2023-03-12T15:39:07.335Z,74.81
2023-03-12T15:41:12.375Z,74.25
2023-03-12T15:43:21.116Z,74.30
2023-03-12T15:45:27.934Z,74.11
2023-03-12T15:47:36.575Z,74.20
2023-03-12T15:49:41.937Z,73.81
2023-03-12T15:52:05.069Z,74.78
2023-03-12T15:54:27.438Z,74.46
2023-03-12T15:56:35.626Z,74.54
2023-03-12T15:58:42.792Z,75.31
2023-03-12T16:00:49.274Z,75.03
2023-03-12T16:02:59.088Z,75.21
2023-03-12T16:05:03.806Z,75.43
2023-03-12T16:07:15.166Z,76.09
2023-03-12T16:09:22.680Z,76.17
2023-03-12T16:11:30.808Z,76.44
2023-03-12T16:13:37.389Z,76.51
2023-03-12T16:15:42.521Z,76.76
2023-03-12T16:17:48.542Z,76.96
2023-03-12T16:19:53.179Z,77.24
2023-03-12T16:22:00.153Z,78.20
2023-03-12T16:24:07.962Z,78.12
2023-03-12T16:26:18.118Z,78.66
2023-03-12T16:28:24.140Z,79.26
2023-03-12T16:30:31.479Z,79.28
2023-03-12T16:32:36.234Z,79.68
2023-03-12T16:34:41.213Z,80.08
2023-03-12T16:36:46.255Z,80.19
2023-03-12T16:38:50.833Z,80.17
2023-03-12T16:40:58.233Z,80.05
2023-03-12T16:43:05.972Z,80.50
2023-03-12T16:45:14.181Z,80.37
2023-03-12T16:47:19.268Z,80.56
2023-03-12T16:49:23.964Z,80.38
2023-03-12T16:51:30.694Z,80.86
2023-03-12T16:53:35.661Z,80.71
2023-03-12T16:55:50.062Z,81.34
2023-03-12T16:58:00.441Z,81.05
2023-03-12T17:00:08.221Z,81.30
2023-03-12T17:02:18.242Z,81.55
2023-03-12T17:04:23.024Z,81.69
2023-03-12T17:06:29.696Z,81.92
2023-03-12T17:08:36.058Z,81.62
2023-03-12T17:10:41.070Z,81.55
2023-03-12T17:12:48.329Z,82.07
2023-03-12T17:14:56.339Z,81.74
2023-03-12T17:17:01.033Z,82.05
2023-03-12T17:19:06.236Z,82.07
2023-03-12T17:21:14.080Z,82.31
2023-03-12T17:23:19.262Z,82.20
2023-03-12T17:25:26.851Z,82.25
2023-03-12T17:27:31.554Z,82.58
2023-03-12T17:29:39.208Z,82.50
2023-03-12T17:31:48.423Z,82.19
2023-03-12T17:33:54.507Z,82.18
2023-03-12T17:36:01.153Z,82.19
2023-03-12T17:38:05.942Z,82.16
2023-03-12T17:40:12.259Z,82.20
2023-03-12T17:42:16.940Z,81.71
2023-03-12T17:44:22.934Z,81.87
2023-03-12T17:46:28.009Z,81.75
2023-03-12T17:48:35.734Z,81.72
2023-03-12T17:50:41.082Z,81.79
2023-03-12T17:52:46.278Z,82.10
2023-03-12T17:54:52.156Z,81.72
2023-03-12T17:56:57.106Z,82.22
2023-03-12T17:59:02.026Z,82.30
2023-03-12T18:01:07.067Z,82.19
2023-03-12T18:03:13.377Z,82.25
2023-03-12T18:05:20.772Z,82.06
2023-03-12T18:07:25.476Z,82.65
2023-03-12T18:09:30.333Z,82.37
2023-03-12T18:11:34.981Z,82.48
2023-03-12T18:13:42.547Z,82.69
2023-03-12T18:15:54.630Z,82.84
2023-03-12T18:18:01.041Z,82.94
2023-03-12T18:20:12.333Z,83.00
2023-03-12T18:22:20.152Z,83.14
2023-03-12T18:24:24.803Z,83.32
2023-03-12T18:26:29.636Z,83.90
2023-03-12T18:28:34.381Z,84.07
2023-03-12T18:30:39.084Z,83.85
2023-03-12T18:32:44.253Z,83.71
2023-03-12T18:34:50.273Z,83.23
2023-03-12T18:36:54.890Z,83.37
2023-03-12T18:39:04.694Z,83.45
2023-03-12T18:41:10.655Z,84.06
2023-03-12T18:43:15.579Z,84.41
2023-03-12T18:45:20.440Z,84.20
2023-03-12T18:47:26.148Z,84.29
2023-03-12T18:49:30.832Z,84.41
2023-03-12T18:51:35.534Z,83.98
2023-03-12T18:53:40.278Z,83.66
2023-03-12T18:55:53.850Z,83.10
2023-03-12T18:57:58.747Z,83.25
2023-03-12T19:00:03.711Z,82.86
2023-03-12T19:02:08.467Z,82.69
2023-03-12T19:04:19.511Z,82.70
2023-03-12T19:06:24.227Z,82.62
2023-03-12T19:08:41.421Z,82.33
2023-03-12T19:10:54.563Z,82.00
2023-03-12T19:12:59.363Z,82.42
2023-03-12T19:15:04.171Z,82.45
2023-03-12T19:17:09.004Z,82.11
2023-03-12T19:19:17.352Z,82.77
2023-03-12T19:21:22.162Z,82.31
2023-03-12T19:23:27.006Z,82.84
2023-03-12T19:25:32.240Z,82.60
2023-03-12T19:27:41.411Z,82.69
2023-03-12T19:29:49.201Z,82.83
2023-03-12T19:31:54.371Z,82.92
2023-03-12T19:33:59.480Z,82.66
2023-03-12T19:36:04.922Z,82.92
2023-03-12T19:38:12.179Z,82.70
2023-03-12T19:40:17.014Z,82.73
2023-03-12T19:42:21.759Z,82.43
2023-03-12T19:44:31.918Z,82.74
2023-03-12T19:46:36.692Z,82.70
2023-03-12T19:48:41.648Z,82.68
2023-03-12T19:50:48.331Z,82.56
2023-03-12T19:52:53.120Z,82.66
2023-03-12T19:55:04.714Z,82.67
2023-03-12T19:57:10.615Z,82.63
2023-03-12T19:59:15.577Z,82.65
2023-03-12T20:01:23.211Z,82.85
2023-03-12T20:03:28.669Z,83.28
2023-03-12T20:05:35.632Z,83.20
2023-03-12T20:07:42.870Z,83.36
2023-03-12T20:09:49.959Z,82.95
2023-03-12T20:11:54.777Z,83.42
2023-03-12T20:13:59.861Z,83.37
2023-03-12T20:16:05.223Z,83.71
2023-03-12T20:18:13.153Z,83.47
2023-03-12T20:20:20.384Z,83.29
2023-03-12T20:22:28.336Z,83.73
2023-03-12T20:24:33.260Z,83.73
2023-03-12T20:26:41.920Z,83.74
2023-03-12T20:28:47.046Z,83.78
2023-03-12T20:30:51.764Z,83.86
2023-03-12T20:32:58.814Z,83.77
2023-03-12T20:35:06.414Z,83.94
2023-03-12T20:37:11.248Z,83.73
2023-03-12T20:39:17.248Z,83.82
2023-03-12T20:41:22.043Z,83.93
2023-03-12T20:43:26.784Z,83.82
2023-03-12T20:45:33.222Z,84.23
2023-03-12T20:47:40.535Z,83.71
2023-03-12T20:49:45.411Z,83.83
2023-03-12T20:51:53.032Z,83.76
2023-03-12T20:53:58.294Z,84.05
2023-03-12T20:56:06.550Z,84.12
2023-03-12T20:58:11.625Z,84.02
2023-03-12T21:00:16.976Z,83.68
2023-03-12T21:02:21.994Z,83.98
2023-03-12T21:04:27.029Z,84.02
2023-03-12T21:06:35.447Z,84.59
2023-03-12T21:08:43.242Z,84.56
2023-03-12T21:10:50.706Z,84.96
2023-03-12T21:12:55.554Z,85.24
2023-03-12T21:15:06.508Z,85.40
2023-03-12T21:17:13.855Z,85.54
2023-03-12T21:19:21.197Z,85.59
2023-03-12T21:21:26.544Z,85.47
2023-03-12T21:23:43.217Z,85.65
2023-03-12T21:25:48.189Z,85.75
2023-03-12T21:27:52.980Z,85.91
2023-03-12T21:29:57.938Z,86.17
2023-03-12T21:32:02.729Z,86.06
2023-03-12T21:34:09.514Z,86.10
2023-03-12T21:36:16.496Z,86.28
2023-03-12T21:38:21.344Z,86.21
2023-03-12T21:40:29.031Z,86.54
2023-03-12T21:42:35.838Z,86.80
2023-03-12T21:44:43.804Z,87.04
2023-03-12T21:46:49.090Z,86.95
2023-03-12T21:48:54.018Z,87.26
2023-03-12T21:50:59.167Z,87.80
2023-03-12T21:53:11.597Z,87.72
2023-03-12T21:55:22.568Z,88.06
2023-03-12T21:57:30.602Z,88.51
2023-03-12T21:59:35.607Z,88.77
2023-03-12T22:01:40.697Z,88.48
2023-03-12T22:03:47.569Z,88.85
2023-03-12T22:05:55.660Z,88.69
2023-03-12T22:08:02.024Z,89.10
2023-03-12T22:10:07.541Z,89.30
2023-03-12T22:12:12.625Z,88.96
2023-03-12T22:14:21.320Z,89.38
2023-03-12T22:16:28.692Z,89.45
2023-03-12T22:18:36.568Z,89.11
2023-03-12T22:20:41.529Z,89.55
2023-03-12T22:22:51.785Z,89.87
2023-03-12T22:25:00.264Z,89.82
2023-03-12T22:27:07.608Z,90.15
2023-03-12T22:29:14.269Z,89.72
2023-03-12T22:31:28.094Z,90.22
2023-03-12T22:33:39.153Z,90.10
2023-03-12T22:35:48.954Z,90.51
2023-03-12T22:37:56.603Z,90.90
2023-03-12T22:40:08.051Z,90.85
2023-03-12T22:42:13.112Z,90.92
2023-03-12T22:44:19.210Z,91.15
2023-03-12T22:46:45.238Z,91.31
2023-03-12T22:48:55.094Z,91.87
2023-03-12T22:51:01.022Z,91.67
2023-03-12T22:53:06.235Z,92.03
2023-03-12T22:55:12.178Z,91.78
2023-03-12T22:57:21.068Z,92.01
2023-03-12T22:59:28.680Z,91.68
2023-03-12T23:01:37.590Z,91.78
2023-03-12T23:03:45.005Z,91.88
2023-03-12T23:05:49.902Z,92.02
2023-03-12T23:07:57.128Z,92.18
2023-03-12T23:10:14.173Z,92.22
2023-03-12T23:12:21.584Z,91.76
2023-03-12T23:14:29.018Z,91.49
2023-03-12T23:16:40.518Z,91.33
2023-03-12T23:18:49.932Z,91.53
2023-03-12T23:21:04.035Z,91.82
2023-03-12T23:23:09.598Z,91.54
2023-03-12T23:25:15.280Z,91.44
2023-03-12T23:27:29.211Z,91.70
2023-03-12T23:29:38.328Z,91.99
2023-03-12T23:31:46.195Z,91.95
2023-03-12T23:33:52.451Z,91.78
2023-03-12T23:36:03.125Z,92.04
2023-03-12T23:38:11.393Z,92.07
2023-03-12T23:40:22.762Z,91.97
2023-03-12T23:42:32.055Z,92.42
2023-03-12T23:44:46.730Z,92.78
2023-03-12T23:46:54.707Z,92.80
2023-03-12T23:49:02.257Z,93.71
2023-03-12T23:51:09.312Z,93.97
2023-03-12T23:53:17.966Z,94.37
2023-03-12T23:55:25.591Z,94.65
2023-03-12T23:57:31.499Z,94.86
2023-03-12T23:59:40.187Z,95.35
